sensor_id;sensor_type;location;lat;lon;timestamp;temperature;humidity
22666;DHT22;11499;49.486;11.104;2023-04-02T00:01:49;9.40;99.90
22666;DHT22;11499;49.486;11.104;2023-04-02T00:04:22;9.40;99.90
22666;DHT22;11499;49.486;11.104;2023-04-02T00:07:24;9.30;99.90
22666;DHT22;11499;49.486;11.104;2023-04-02T00:09:58;9.30;99.90
22666;DHT22;11499;49.486;11.104;2023-04-02T00:12:23;9.30;99.90
22666;DHT22;11499;49.486;11.104;2023-04-02T00:14:52;9.20;99.90
22666;DHT22;11499;49.486;11.104;2023-04-02T00:17:21;9.30;99.90
22666;DHT22;11499;49.486;11.104;2023-04-02T00:22:20;9.30;99.90
22666;DHT22;11499;49.486;11.104;2023-04-02T00:24:50;9.30;99.90
22666;DHT22;11499;49.486;11.104;2023-04-02T00:27:16;9.40;99.90
22666;DHT22;11499;49.486;11.104;2023-04-02T00:29:53;9.40;99.90
22666;DHT22;11499;49.486;11.104;2023-04-02T00:32:28;9.40;99.90
22666;DHT22;11499;49.486;11.104;2023-04-02T00:34:55;9.40;99.90
22666;DHT22;11499;49.486;11.104;2023-04-02T00:37:24;9.40;99.90
22666;DHT22;11499;49.486;11.104;2023-04-02T00:40:01;9.40;99.90
22666;DHT22;11499;49.486;11.104;2023-04-02T00:42:30;9.30;99.90
22666;DHT22;11499;49.486;11.104;2023-04-02T00:44:56;9.30;99.90
22666;DHT22;11499;49.486;11.104;2023-04-02T00:50:03;9.30;99.90
22666;DHT22;11499;49.486;11.104;2023-04-02T00:52:31;9.30;99.90
22666;DHT22;11499;49.486;11.104;2023-04-02T00:55:13;9.30;99.90
22666;DHT22;11499;49.486;11.104;2023-04-02T00:57:44;9.40;99.90
22666;DHT22;11499;49.486;11.104;2023-04-02T01:05:50;9.50;99.90
22666;DHT22;11499;49.486;11.104;2023-04-02T01:08:32;9.50;99.90
22666;DHT22;11499;49.486;11.104;2023-04-02T01:20:07;9.60;99.90
22666;DHT22;11499;49.486;11.104;2023-04-02T01:25:16;9.50;99.90
22666;DHT22;11499;49.486;11.104;2023-04-02T01:27:50;9.50;99.90
22666;DHT22;11499;49.486;11.104;2023-04-02T01:30:16;9.50;99.90
22666;DHT22;11499;49.486;11.104;2023-04-02T01:32:43;9.40;99.90
22666;DHT22;11499;49.486;11.104;2023-04-02T01:35:09;9.40;99.90
22666;DHT22;11499;49.486;11.104;2023-04-02T01:37:51;9.30;99.90
22666;DHT22;11499;49.486;11.104;2023-04-02T01:40:50;9.30;99.90
22666;DHT22;11499;49.486;11.104;2023-04-02T01:44:51;9.30;99.90
22666;DHT22;11499;49.486;11.104;2023-04-02T01:47:21;9.30;99.90
22666;DHT22;11499;49.486;11.104;2023-04-02T01:49:47;9.20;99.90
22666;DHT22;11499;49.486;11.104;2023-04-02T01:52:17;9.20;99.90
22666;DHT22;11499;49.486;11.104;2023-04-02T01:54:45;9.20;99.90
22666;DHT22;11499;49.486;11.104;2023-04-02T01:57:11;9.20;99.90
22666;DHT22;11499;49.486;11.104;2023-04-02T01:59:37;9.20;99.90
22666;DHT22;11499;49.486;11.104;2023-04-02T02:02:06;9.20;99.90
22666;DHT22;11499;49.486;11.104;2023-04-02T02:04:35;9.20;99.90
22666;DHT22;11499;49.486;11.104;2023-04-02T02:07:01;9.20;99.90
22666;DHT22;11499;49.486;11.104;2023-04-02T02:12:16;9.10;99.90
22666;DHT22;11499;49.486;11.104;2023-04-02T02:14:47;9.00;99.90
22666;DHT22;11499;49.486;11.104;2023-04-02T02:17:15;9.00;99.90
22666;DHT22;11499;49.486;11.104;2023-04-02T02:19:47;9.00;99.90
22666;DHT22;11499;49.486;11.104;2023-04-02T02:22:31;9.10;99.90
22666;DHT22;11499;49.486;11.104;2023-04-02T02:25:01;9.10;99.90
22666;DHT22;11499;49.486;11.104;2023-04-02T02:30:20;9.20;99.90
22666;DHT22;11499;49.486;11.104;2023-04-02T02:32:59;9.20;99.90
22666;DHT22;11499;49.486;11.104;2023-04-02T02:35:32;9.20;99.90
22666;DHT22;11499;49.486;11.104;2023-04-02T02:39:51;9.20;99.90
22666;DHT22;11499;49.486;11.104;2023-04-02T02:44:53;9.10;99.90
22666;DHT22;11499;49.486;11.104;2023-04-02T02:47:29;9.10;99.90
22666;DHT22;11499;49.486;11.104;2023-04-02T02:49:59;9.10;99.90
22666;DHT22;11499;49.486;11.104;2023-04-02T02:52:28;9.10;99.90
22666;DHT22;11499;49.486;11.104;2023-04-02T02:55:07;9.10;99.90
22666;DHT22;11499;49.486;11.104;2023-04-02T02:57:47;9.10;99.90
22666;DHT22;11499;49.486;11.104;2023-04-02T03:00:14;9.10;99.90
22666;DHT22;11499;49.486;11.104;2023-04-02T03:02:43;9.10;99.90
22666;DHT22;11499;49.486;11.104;2023-04-02T03:07:45;9.10;99.90
22666;DHT22;11499;49.486;11.104;2023-04-02T03:10:38;9.10;99.90
22666;DHT22;11499;49.486;11.104;2023-04-02T03:13:24;9.10;99.90
22666;DHT22;11499;49.486;11.104;2023-04-02T03:18:35;8.90;99.90
22666;DHT22;11499;49.486;11.104;2023-04-02T03:21:10;9.00;99.90
22666;DHT22;11499;49.486;11.104;2023-04-02T03:23:42;9.10;99.90
22666;DHT22;11499;49.486;11.104;2023-04-02T03:28:56;8.90;99.90
22666;DHT22;11499;49.486;11.104;2023-04-02T03:33:58;8.80;99.90
22666;DHT22;11499;49.486;11.104;2023-04-02T03:39:17;8.80;99.90
22666;DHT22;11499;49.486;11.104;2023-04-02T03:42:18;8.90;99.90
22666;DHT22;11499;49.486;11.104;2023-04-02T03:49:48;8.90;99.90
22666;DHT22;11499;49.486;11.104;2023-04-02T03:52:24;8.80;99.90
22666;DHT22;11499;49.486;11.104;2023-04-02T03:54:50;8.80;99.90
22666;DHT22;11499;49.486;11.104;2023-04-02T03:57:33;8.70;99.90
22666;DHT22;11499;49.486;11.104;2023-04-02T04:00:18;8.70;99.90
22666;DHT22;11499;49.486;11.104;2023-04-02T04:02:59;8.70;99.90
22666;DHT22;11499;49.486;11.104;2023-04-02T04:07:30;8.60;99.90
22666;DHT22;11499;49.486;11.104;2023-04-02T04:09:57;8.70;99.90
22666;DHT22;11499;49.486;11.104;2023-04-02T04:12:33;8.70;99.90
22666;DHT22;11499;49.486;11.104;2023-04-02T04:15:06;8.70;99.90
22666;DHT22;11499;49.486;11.104;2023-04-02T04:17:59;8.60;99.90
22666;DHT22;11499;49.486;11.104;2023-04-02T04:20:35;8.60;99.90
22666;DHT22;11499;49.486;11.104;2023-04-02T04:25:59;8.70;99.90
22666;DHT22;11499;49.486;11.104;2023-04-02T04:29:00;8.70;99.90
22666;DHT22;11499;49.486;11.104;2023-04-02T04:34:22;8.70;99.90
22666;DHT22;11499;49.486;11.104;2023-04-02T04:36:56;8.60;99.90
22666;DHT22;11499;49.486;11.104;2023-04-02T04:39:37;8.60;99.90
22666;DHT22;11499;49.486;11.104;2023-04-02T04:42:06;8.60;99.90
22666;DHT22;11499;49.486;11.104;2023-04-02T04:44:45;8.70;99.90
22666;DHT22;11499;49.486;11.104;2023-04-02T04:47:23;8.60;99.90
22666;DHT22;11499;49.486;11.104;2023-04-02T04:49:57;8.60;99.90
22666;DHT22;11499;49.486;11.104;2023-04-02T04:52:27;8.60;99.90
22666;DHT22;11499;49.486;11.104;2023-04-02T04:54:53;8.70;99.90
22666;DHT22;11499;49.486;11.104;2023-04-02T05:01:16;8.80;99.90
22666;DHT22;11499;49.486;11.104;2023-04-02T05:06:55;8.80;99.90
22666;DHT22;11499;49.486;11.104;2023-04-02T05:09:43;8.80;99.90
22666;DHT22;11499;49.486;11.104;2023-04-02T05:20:59;8.90;99.90
22666;DHT22;11499;49.486;11.104;2023-04-02T05:23:33;8.80;99.90
22666;DHT22;11499;49.486;11.104;2023-04-02T05:29:21;8.80;99.90
22666;DHT22;11499;49.486;11.104;2023-04-02T05:31:59;8.90;99.90
22666;DHT22;11499;49.486;11.104;2023-04-02T05:34:30;8.90;99.90
22666;DHT22;11499;49.486;11.104;2023-04-02T05:36:57;8.80;99.90
22666;DHT22;11499;49.486;11.104;2023-04-02T05:39:24;8.80;99.90
22666;DHT22;11499;49.486;11.104;2023-04-02T05:42:03;8.80;99.90
22666;DHT22;11499;49.486;11.104;2023-04-02T05:44:47;8.80;99.90
22666;DHT22;11499;49.486;11.104;2023-04-02T05:47:23;8.90;99.90
22666;DHT22;11499;49.486;11.104;2023-04-02T05:52:29;8.90;99.90
22666;DHT22;11499;49.486;11.104;2023-04-02T05:57:14;8.90;99.90
22666;DHT22;11499;49.486;11.104;2023-04-02T05:59:45;8.90;99.90
22666;DHT22;11499;49.486;11.104;2023-04-02T06:02:29;8.80;99.90
22666;DHT22;11499;49.486;11.104;2023-04-02T06:05:03;8.80;99.90
22666;DHT22;11499;49.486;11.104;2023-04-02T06:07:44;8.90;99.90
22666;DHT22;11499;49.486;11.104;2023-04-02T06:10:16;8.90;99.90
22666;DHT22;11499;49.486;11.104;2023-04-02T06:12:57;8.90;99.90
22666;DHT22;11499;49.486;11.104;2023-04-02T06:15:28;8.90;99.90
22666;DHT22;11499;49.486;11.104;2023-04-02T06:17:59;8.90;99.90
22666;DHT22;11499;49.486;11.104;2023-04-02T06:20:26;8.90;99.90
22666;DHT22;11499;49.486;11.104;2023-04-02T06:25:31;8.90;99.90
22666;DHT22;11499;49.486;11.104;2023-04-02T06:28:00;8.80;99.90
22666;DHT22;11499;49.486;11.104;2023-04-02T06:30:31;8.90;99.90
22666;DHT22;11499;49.486;11.104;2023-04-02T06:32:57;8.90;99.90
22666;DHT22;11499;49.486;11.104;2023-04-02T06:35:23;9.00;99.90
22666;DHT22;11499;49.486;11.104;2023-04-02T06:37:51;8.90;99.90
22666;DHT22;11499;49.486;11.104;2023-04-02T06:42:54;8.90;99.90
22666;DHT22;11499;49.486;11.104;2023-04-02T06:45:27;8.90;99.90
22666;DHT22;11499;49.486;11.104;2023-04-02T06:47:56;8.80;99.90
22666;DHT22;11499;49.486;11.104;2023-04-02T06:51:35;8.80;99.90
22666;DHT22;11499;49.486;11.104;2023-04-02T06:54:01;8.80;99.90
22666;DHT22;11499;49.486;11.104;2023-04-02T06:56:42;8.60;99.90
22666;DHT22;11499;49.486;11.104;2023-04-02T06:59:09;8.70;99.90
22666;DHT22;11499;49.486;11.104;2023-04-02T07:04:11;8.70;99.90
22666;DHT22;11499;49.486;11.104;2023-04-02T07:06:37;8.70;99.90
22666;DHT22;11499;49.486;11.104;2023-04-02T07:09:03;8.70;99.90
22666;DHT22;11499;49.486;11.104;2023-04-02T07:11:29;8.60;99.90
22666;DHT22;11499;49.486;11.104;2023-04-02T07:13:55;8.70;99.90
22666;DHT22;11499;49.486;11.104;2023-04-02T07:18:57;8.80;99.90
22666;DHT22;11499;49.486;11.104;2023-04-02T07:21:26;8.70;99.90
22666;DHT22;11499;49.486;11.104;2023-04-02T07:23:52;8.70;99.90
22666;DHT22;11499;49.486;11.104;2023-04-02T07:26:24;8.70;99.90
22666;DHT22;11499;49.486;11.104;2023-04-02T07:28:51;8.70;99.90
22666;DHT22;11499;49.486;11.104;2023-04-02T07:31:25;8.70;99.90
22666;DHT22;11499;49.486;11.104;2023-04-02T07:33:56;8.50;99.90
22666;DHT22;11499;49.486;11.104;2023-04-02T07:36:24;8.60;99.90
22666;DHT22;11499;49.486;11.104;2023-04-02T07:38:50;8.60;99.90
22666;DHT22;11499;49.486;11.104;2023-04-02T07:41:16;8.60;99.90
22666;DHT22;11499;49.486;11.104;2023-04-02T07:46:40;8.60;99.90
22666;DHT22;11499;49.486;11.104;2023-04-02T07:49:05;8.60;99.90
22666;DHT22;11499;49.486;11.104;2023-04-02T07:51:31;8.50;99.90
22666;DHT22;11499;49.486;11.104;2023-04-02T07:53:57;8.50;99.90
22666;DHT22;11499;49.486;11.104;2023-04-02T07:56:26;8.50;99.90
22666;DHT22;11499;49.486;11.104;2023-04-02T07:58:53;8.50;99.90
22666;DHT22;11499;49.486;11.104;2023-04-02T08:01:20;8.50;99.90
22666;DHT22;11499;49.486;11.104;2023-04-02T08:03:48;8.40;99.90
22666;DHT22;11499;49.486;11.104;2023-04-02T08:06:14;8.00;99.90
22666;DHT22;11499;49.486;11.104;2023-04-02T08:08:39;7.50;99.90
22666;DHT22;11499;49.486;11.104;2023-04-02T08:13:46;7.30;99.90
22666;DHT22;11499;49.486;11.104;2023-04-02T08:16:11;7.40;99.90
22666;DHT22;11499;49.486;11.104;2023-04-02T08:18:37;7.60;99.90
22666;DHT22;11499;49.486;11.104;2023-04-02T08:21:05;7.70;99.90
22666;DHT22;11499;49.486;11.104;2023-04-02T08:23:33;7.70;99.90
22666;DHT22;11499;49.486;11.104;2023-04-02T08:25:59;7.80;99.90
22666;DHT22;11499;49.486;11.104;2023-04-02T08:28:25;7.80;99.90
22666;DHT22;11499;49.486;11.104;2023-04-02T08:30:51;7.90;99.90
22666;DHT22;11499;49.486;11.104;2023-04-02T08:33:17;7.90;99.90
22666;DHT22;11499;49.486;11.104;2023-04-02T08:35:45;8.10;99.90
22666;DHT22;11499;49.486;11.104;2023-04-02T08:41:20;7.80;99.90
22666;DHT22;11499;49.486;11.104;2023-04-02T08:44:11;7.90;99.90
22666;DHT22;11499;49.486;11.104;2023-04-02T08:49:19;7.80;99.90
22666;DHT22;11499;49.486;11.104;2023-04-02T08:51:47;7.80;99.90
22666;DHT22;11499;49.486;11.104;2023-04-02T08:54:32;7.70;99.90
22666;DHT22;11499;49.486;11.104;2023-04-02T08:57:26;7.80;99.90
22666;DHT22;11499;49.486;11.104;2023-04-02T09:00:05;7.70;99.90
22666;DHT22;11499;49.486;11.104;2023-04-02T09:02:40;7.70;99.90
22666;DHT22;11499;49.486;11.104;2023-04-02T09:07:50;7.80;99.90
22666;DHT22;11499;49.486;11.104;2023-04-02T09:10:17;8.10;99.90
22666;DHT22;11499;49.486;11.104;2023-04-02T09:12:50;7.70;99.90
22666;DHT22;11499;49.486;11.104;2023-04-02T09:15:24;7.50;99.90
22666;DHT22;11499;49.486;11.104;2023-04-02T09:18:04;7.50;99.90
22666;DHT22;11499;49.486;11.104;2023-04-02T09:20:30;7.60;99.90
22666;DHT22;11499;49.486;11.104;2023-04-02T09:22:56;7.50;99.90
22666;DHT22;11499;49.486;11.104;2023-04-02T09:25:24;7.60;99.90
22666;DHT22;11499;49.486;11.104;2023-04-02T09:27:55;7.70;99.90
22666;DHT22;11499;49.486;11.104;2023-04-02T09:38:21;7.90;99.90
22666;DHT22;11499;49.486;11.104;2023-04-02T09:43:21;7.70;99.90
22666;DHT22;11499;49.486;11.104;2023-04-02T09:45:56;7.80;99.90
22666;DHT22;11499;49.486;11.104;2023-04-02T09:48:29;7.60;99.90
22666;DHT22;11499;49.486;11.104;2023-04-02T09:53:39;7.60;99.90
22666;DHT22;11499;49.486;11.104;2023-04-02T09:58:33;7.80;99.90
22666;DHT22;11499;49.486;11.104;2023-04-02T10:00:59;7.80;99.90
22666;DHT22;11499;49.486;11.104;2023-04-02T10:05:24;7.50;99.90
22666;DHT22;11499;49.486;11.104;2023-04-02T10:07:53;7.40;99.90
22666;DHT22;11499;49.486;11.104;2023-04-02T10:10:28;7.70;99.90
22666;DHT22;11499;49.486;11.104;2023-04-02T10:15:49;7.50;99.90
22666;DHT22;11499;49.486;11.104;2023-04-02T10:18:42;7.50;99.90
22666;DHT22;11499;49.486;11.104;2023-04-02T10:21:11;7.40;99.90
22666;DHT22;11499;49.486;11.104;2023-04-02T10:23:37;7.50;99.90
22666;DHT22;11499;49.486;11.104;2023-04-02T10:34:40;8.10;99.90
22666;DHT22;11499;49.486;11.104;2023-04-02T10:46:25;7.30;99.90
22666;DHT22;11499;49.486;11.104;2023-04-02T10:52:42;7.50;99.90
22666;DHT22;11499;49.486;11.104;2023-04-02T10:57:40;7.40;99.90
22666;DHT22;11499;49.486;11.104;2023-04-02T11:00:13;8.00;99.90
22666;DHT22;11499;49.486;11.104;2023-04-02T11:03:06;7.90;99.90
22666;DHT22;11499;49.486;11.104;2023-04-02T11:05:50;8.00;99.90
22666;DHT22;11499;49.486;11.104;2023-04-02T11:08:23;8.10;99.90
22666;DHT22;11499;49.486;11.104;2023-04-02T11:11:14;8.10;99.90
22666;DHT22;11499;49.486;11.104;2023-04-02T11:14:02;7.90;99.90
22666;DHT22;11499;49.486;11.104;2023-04-02T11:16:30;7.90;99.90
22666;DHT22;11499;49.486;11.104;2023-04-02T11:19:18;7.70;99.90
22666;DHT22;11499;49.486;11.104;2023-04-02T11:24:01;7.60;99.90
22666;DHT22;11499;49.486;11.104;2023-04-02T11:26:36;7.50;99.90
22666;DHT22;11499;49.486;11.104;2023-04-02T11:31:40;7.50;99.90
22666;DHT22;11499;49.486;11.104;2023-04-02T11:34:12;7.60;99.90
22666;DHT22;11499;49.486;11.104;2023-04-02T11:39:52;7.80;99.90
22666;DHT22;11499;49.486;11.104;2023-04-02T11:44:50;7.70;99.90
22666;DHT22;11499;49.486;11.104;2023-04-02T11:47:24;7.80;99.90
22666;DHT22;11499;49.486;11.104;2023-04-02T11:54:03;7.90;99.90
22666;DHT22;11499;49.486;11.104;2023-04-02T11:56:37;7.80;99.90
22666;DHT22;11499;49.486;11.104;2023-04-02T11:59:19;7.70;99.90
22666;DHT22;11499;49.486;11.104;2023-04-02T12:02:18;7.90;99.90
22666;DHT22;11499;49.486;11.104;2023-04-02T12:07:58;8.40;99.90
22666;DHT22;11499;49.486;11.104;2023-04-02T12:10:50;8.20;99.90
22666;DHT22;11499;49.486;11.104;2023-04-02T12:13:33;7.70;99.90
22666;DHT22;11499;49.486;11.104;2023-04-02T12:18:52;7.80;99.90
22666;DHT22;11499;49.486;11.104;2023-04-02T12:21:25;7.80;99.90
22666;DHT22;11499;49.486;11.104;2023-04-02T12:23:53;7.80;99.90
22666;DHT22;11499;49.486;11.104;2023-04-02T12:26:25;7.90;99.90
22666;DHT22;11499;49.486;11.104;2023-04-02T12:28:51;7.60;99.90
22666;DHT22;11499;49.486;11.104;2023-04-02T12:31:18;7.40;99.90
22666;DHT22;11499;49.486;11.104;2023-04-02T12:33:45;7.40;99.90
22666;DHT22;11499;49.486;11.104;2023-04-02T12:36:20;7.40;99.90
22666;DHT22;11499;49.486;11.104;2023-04-02T12:38:51;7.50;99.90
22666;DHT22;11499;49.486;11.104;2023-04-02T12:41:26;7.40;99.90
22666;DHT22;11499;49.486;11.104;2023-04-02T12:46:43;7.50;99.90
22666;DHT22;11499;49.486;11.104;2023-04-02T12:49:37;7.60;99.90
22666;DHT22;11499;49.486;11.104;2023-04-02T12:52:10;7.80;99.90
22666;DHT22;11499;49.486;11.104;2023-04-02T12:59:53;7.80;99.90
22666;DHT22;11499;49.486;11.104;2023-04-02T13:02:42;7.70;99.90
22666;DHT22;11499;49.486;11.104;2023-04-02T13:05:09;7.70;99.90
22666;DHT22;11499;49.486;11.104;2023-04-02T13:07:36;7.80;99.90
22666;DHT22;11499;49.486;11.104;2023-04-02T13:10:05;7.70;99.90
22666;DHT22;11499;49.486;11.104;2023-04-02T13:12:37;7.60;99.90
22666;DHT22;11499;49.486;11.104;2023-04-02T13:15:17;7.50;99.90
22666;DHT22;11499;49.486;11.104;2023-04-02T13:19:39;7.60;99.90
22666;DHT22;11499;49.486;11.104;2023-04-02T13:22:28;7.60;99.90
22666;DHT22;11499;49.486;11.104;2023-04-02T13:24:55;7.90;99.90
22666;DHT22;11499;49.486;11.104;2023-04-02T13:27:20;8.00;99.90
22666;DHT22;11499;49.486;11.104;2023-04-02T13:29:46;7.90;99.90
22666;DHT22;11499;49.486;11.104;2023-04-02T13:32:11;8.10;99.90
22666;DHT22;11499;49.486;11.104;2023-04-02T13:34:37;8.00;99.90
22666;DHT22;11499;49.486;11.104;2023-04-02T13:37:03;7.60;99.90
22666;DHT22;11499;49.486;11.104;2023-04-02T13:39:28;7.40;99.90
22666;DHT22;11499;49.486;11.104;2023-04-02T13:42:02;7.20;99.90
22666;DHT22;11499;49.486;11.104;2023-04-02T13:47:16;7.60;99.90
22666;DHT22;11499;49.486;11.104;2023-04-02T13:49:42;7.80;99.90
22666;DHT22;11499;49.486;11.104;2023-04-02T13:52:13;7.40;99.90
22666;DHT22;11499;49.486;11.104;2023-04-02T13:54:51;7.50;99.90
22666;DHT22;11499;49.486;11.104;2023-04-02T13:57:18;7.30;99.90
22666;DHT22;11499;49.486;11.104;2023-04-02T13:59:43;7.00;99.90
22666;DHT22;11499;49.486;11.104;2023-04-02T14:02:14;7.10;99.90
22666;DHT22;11499;49.486;11.104;2023-04-02T14:04:45;7.10;99.90
22666;DHT22;11499;49.486;11.104;2023-04-02T14:07:45;7.00;99.90
22666;DHT22;11499;49.486;11.104;2023-04-02T14:17:23;6.60;99.90
22666;DHT22;11499;49.486;11.104;2023-04-02T14:20:11;6.60;99.90
22666;DHT22;11499;49.486;11.104;2023-04-02T14:23:00;6.70;99.90
22666;DHT22;11499;49.486;11.104;2023-04-02T14:28:32;6.60;99.90
22666;DHT22;11499;49.486;11.104;2023-04-02T14:31:21;6.80;99.90
22666;DHT22;11499;49.486;11.104;2023-04-02T14:36:51;6.30;99.90
22666;DHT22;11499;49.486;11.104;2023-04-02T14:41:55;6.50;99.90
22666;DHT22;11499;49.486;11.104;2023-04-02T14:47:23;6.50;99.90
22666;DHT22;11499;49.486;11.104;2023-04-02T14:49:55;6.50;99.90
22666;DHT22;11499;49.486;11.104;2023-04-02T14:52:25;6.70;99.90
22666;DHT22;11499;49.486;11.104;2023-04-02T14:54:58;6.50;99.90
22666;DHT22;11499;49.486;11.104;2023-04-02T14:57:30;6.50;99.90
22666;DHT22;11499;49.486;11.104;2023-04-02T15:00:26;6.30;99.90
22666;DHT22;11499;49.486;11.104;2023-04-02T15:03:15;6.30;99.90
22666;DHT22;11499;49.486;11.104;2023-04-02T15:05:45;6.40;99.90
22666;DHT22;11499;49.486;11.104;2023-04-02T15:08:32;6.50;99.90
22666;DHT22;11499;49.486;11.104;2023-04-02T15:14:05;6.40;99.90
22666;DHT22;11499;49.486;11.104;2023-04-02T15:16:32;6.50;99.90
22666;DHT22;11499;49.486;11.104;2023-04-02T15:19:02;6.60;99.90
22666;DHT22;11499;49.486;11.104;2023-04-02T15:21:36;6.20;99.90
22666;DHT22;11499;49.486;11.104;2023-04-02T15:24:20;6.20;99.90
22666;DHT22;11499;49.486;11.104;2023-04-02T15:27:26;6.10;99.90
22666;DHT22;11499;49.486;11.104;2023-04-02T15:30:34;6.30;99.90
22666;DHT22;11499;49.486;11.104;2023-04-02T15:32:54;6.10;99.90
22666;DHT22;11499;49.486;11.104;2023-04-02T15:35:50;5.90;99.90
22666;DHT22;11499;49.486;11.104;2023-04-02T15:43:35;6.00;99.90
22666;DHT22;11499;49.486;11.104;2023-04-02T15:49:32;5.90;99.90
22666;DHT22;11499;49.486;11.104;2023-04-02T15:54:40;5.90;99.90
22666;DHT22;11499;49.486;11.104;2023-04-02T16:11:10;5.50;99.90
22666;DHT22;11499;49.486;11.104;2023-04-02T16:13:37;5.50;99.90
22666;DHT22;11499;49.486;11.104;2023-04-02T16:24:39;5.50;99.90
22666;DHT22;11499;49.486;11.104;2023-04-02T16:27:09;5.60;99.90
22666;DHT22;11499;49.486;11.104;2023-04-02T16:48:56;5.40;99.90
22666;DHT22;11499;49.486;11.104;2023-04-02T16:51:49;5.50;99.90
22666;DHT22;11499;49.486;11.104;2023-04-02T16:54:37;5.40;99.90
22666;DHT22;11499;49.486;11.104;2023-04-02T17:05:21;5.10;99.90
22666;DHT22;11499;49.486;11.104;2023-04-02T17:07:59;5.10;99.90
22666;DHT22;11499;49.486;11.104;2023-04-02T17:10:47;5.20;99.90
22666;DHT22;11499;49.486;11.104;2023-04-02T17:13:32;5.10;99.90
22666;DHT22;11499;49.486;11.104;2023-04-02T17:18:37;5.10;99.90
22666;DHT22;11499;49.486;11.104;2023-04-02T17:21:06;5.00;99.90
22666;DHT22;11499;49.486;11.104;2023-04-02T17:23:50;5.00;99.90
22666;DHT22;11499;49.486;11.104;2023-04-02T17:29:03;5.00;99.90
22666;DHT22;11499;49.486;11.104;2023-04-02T17:31:32;5.00;99.90
22666;DHT22;11499;49.486;11.104;2023-04-02T17:34:00;4.90;99.90
22666;DHT22;11499;49.486;11.104;2023-04-02T17:43:00;4.80;99.90
22666;DHT22;11499;49.486;11.104;2023-04-02T17:45:23;4.70;99.90
22666;DHT22;11499;49.486;11.104;2023-04-02T17:50:31;4.70;99.90
22666;DHT22;11499;49.486;11.104;2023-04-02T17:56:04;4.60;99.90
22666;DHT22;11499;49.486;11.104;2023-04-02T18:01:28;4.50;99.90
22666;DHT22;11499;49.486;11.104;2023-04-02T18:04:39;4.40;99.90
22666;DHT22;11499;49.486;11.104;2023-04-02T18:22:25;4.30;99.90
22666;DHT22;11499;49.486;11.104;2023-04-02T18:28:24;4.30;99.90
22666;DHT22;11499;49.486;11.104;2023-04-02T18:32:02;4.20;99.90
22666;DHT22;11499;49.486;11.104;2023-04-02T18:45:40;4.10;99.90
22666;DHT22;11499;49.486;11.104;2023-04-02T18:50:47;4.10;99.90
22666;DHT22;11499;49.486;11.104;2023-04-02T18:55:23;4.10;99.90
22666;DHT22;11499;49.486;11.104;2023-04-02T18:57:56;4.00;99.90
22666;DHT22;11499;49.486;11.104;2023-04-02T19:00:24;4.00;99.90
22666;DHT22;11499;49.486;11.104;2023-04-02T19:10:50;3.90;99.80
22666;DHT22;11499;49.486;11.104;2023-04-02T19:13:18;3.90;99.80
22666;DHT22;11499;49.486;11.104;2023-04-02T19:16:01;3.90;99.00
22666;DHT22;11499;49.486;11.104;2023-04-02T19:22:07;3.80;99.30
22666;DHT22;11499;49.486;11.104;2023-04-02T19:32:32;3.80;99.30
22666;DHT22;11499;49.486;11.104;2023-04-02T19:38:23;3.80;99.40
22666;DHT22;11499;49.486;11.104;2023-04-02T19:41:41;3.80;99.10
22666;DHT22;11499;49.486;11.104;2023-04-02T19:43:57;3.80;99.40
22666;DHT22;11499;49.486;11.104;2023-04-02T19:46:24;3.80;99.20
22666;DHT22;11499;49.486;11.104;2023-04-02T19:48:59;3.80;99.20
22666;DHT22;11499;49.486;11.104;2023-04-02T19:53:59;3.80;99.20
22666;DHT22;11499;49.486;11.104;2023-04-02T19:56:24;3.90;98.90
22666;DHT22;11499;49.486;11.104;2023-04-02T19:58:51;3.90;98.50
22666;DHT22;11499;49.486;11.104;2023-04-02T20:01:16;3.90;98.60
22666;DHT22;11499;49.486;11.104;2023-04-02T20:03:42;3.90;98.50
22666;DHT22;11499;49.486;11.104;2023-04-02T20:06:07;4.00;98.50
22666;DHT22;11499;49.486;11.104;2023-04-02T20:08:33;4.00;98.50
22666;DHT22;11499;49.486;11.104;2023-04-02T20:11:01;4.10;98.40
22666;DHT22;11499;49.486;11.104;2023-04-02T20:13:27;4.20;98.60
22666;DHT22;11499;49.486;11.104;2023-04-02T20:15:53;4.10;98.20
22666;DHT22;11499;49.486;11.104;2023-04-02T20:21:27;4.20;98.20
22666;DHT22;11499;49.486;11.104;2023-04-02T20:23:58;4.20;98.10
22666;DHT22;11499;49.486;11.104;2023-04-02T20:26:24;4.10;98.10
22666;DHT22;11499;49.486;11.104;2023-04-02T20:28:50;4.10;97.40
22666;DHT22;11499;49.486;11.104;2023-04-02T20:31:17;4.10;97.40
22666;DHT22;11499;49.486;11.104;2023-04-02T20:33:43;4.10;96.40
22666;DHT22;11499;49.486;11.104;2023-04-02T20:36:11;4.10;95.90
22666;DHT22;11499;49.486;11.104;2023-04-02T20:38:37;4.10;95.90
22666;DHT22;11499;49.486;11.104;2023-04-02T20:41:04;4.10;95.50
22666;DHT22;11499;49.486;11.104;2023-04-02T20:43:30;4.10;95.00
22666;DHT22;11499;49.486;11.104;2023-04-02T20:48:13;4.10;94.80
22666;DHT22;11499;49.486;11.104;2023-04-02T20:50:39;4.20;95.10
22666;DHT22;11499;49.486;11.104;2023-04-02T20:53:05;4.20;95.20
22666;DHT22;11499;49.486;11.104;2023-04-02T20:55:31;4.20;95.00
22666;DHT22;11499;49.486;11.104;2023-04-02T20:57:57;4.20;95.40
22666;DHT22;11499;49.486;11.104;2023-04-02T21:00:22;4.10;95.10
22666;DHT22;11499;49.486;11.104;2023-04-02T21:02:48;4.10;95.40
22666;DHT22;11499;49.486;11.104;2023-04-02T21:05:13;4.10;95.80
22666;DHT22;11499;49.486;11.104;2023-04-02T21:07:39;4.10;96.20
22666;DHT22;11499;49.486;11.104;2023-04-02T21:10:04;4.10;95.60
22666;DHT22;11499;49.486;11.104;2023-04-02T21:15:09;4.10;95.70
22666;DHT22;11499;49.486;11.104;2023-04-02T21:17:36;4.10;95.80
22666;DHT22;11499;49.486;11.104;2023-04-02T21:20:02;4.10;95.60
22666;DHT22;11499;49.486;11.104;2023-04-02T21:22:28;4.10;95.30
22666;DHT22;11499;49.486;11.104;2023-04-02T21:24:54;4.10;95.20
22666;DHT22;11499;49.486;11.104;2023-04-02T21:27:19;4.00;94.90
22666;DHT22;11499;49.486;11.104;2023-04-02T21:29:50;4.10;94.70
22666;DHT22;11499;49.486;11.104;2023-04-02T21:32:15;4.10;94.70
22666;DHT22;11499;49.486;11.104;2023-04-02T21:34:41;4.00;94.60
22666;DHT22;11499;49.486;11.104;2023-04-02T21:37:06;4.10;94.90
22666;DHT22;11499;49.486;11.104;2023-04-02T21:42:22;4.00;94.70
22666;DHT22;11499;49.486;11.104;2023-04-02T21:44:48;4.10;94.40
22666;DHT22;11499;49.486;11.104;2023-04-02T21:47:13;4.10;94.60
22666;DHT22;11499;49.486;11.104;2023-04-02T21:49:39;4.10;94.60
22666;DHT22;11499;49.486;11.104;2023-04-02T21:52:05;4.10;94.80
22666;DHT22;11499;49.486;11.104;2023-04-02T21:54:30;4.10;94.70
22666;DHT22;11499;49.486;11.104;2023-04-02T21:56:56;4.10;94.60
22666;DHT22;11499;49.486;11.104;2023-04-02T21:59:21;4.10;94.90
22666;DHT22;11499;49.486;11.104;2023-04-02T22:01:49;4.10;94.80
22666;DHT22;11499;49.486;11.104;2023-04-02T22:04:18;4.20;95.00